sensor_id;sensor_type;location;lat;lon;timestamp;pressure;altitude;pressure_sealevel;temperature;humidity
56894;BME280;43392;50.078;13.704;2023-04-10T00:00:01;97788.66;;;7.70;78.29
56894;BME280;43392;50.078;13.704;2023-04-10T00:02:28;97796.75;;;7.75;77.98
56894;BME280;43392;50.078;13.704;2023-04-10T00:04:54;97781.44;;;7.70;78.04
56894;BME280;43392;50.078;13.704;2023-04-10T00:07:21;97791.63;;;7.73;77.98
56894;BME280;43392;50.078;13.704;2023-04-10T00:09:47;97791.63;;;7.73;77.93
56894;BME280;43392;50.078;13.704;2023-04-10T00:12:14;97790.59;;;7.74;77.90
56894;BME280;43392;50.078;13.704;2023-04-10T00:14:42;97787.13;;;7.74;77.97
56894;BME280;43392;50.078;13.704;2023-04-10T00:17:09;97787.13;;;7.74;77.86
56894;BME280;43392;50.078;13.704;2023-04-10T00:19:35;97782.03;;;7.72;77.95
56894;BME280;43392;50.078;13.704;2023-04-10T00:22:03;97783.31;;;7.70;77.68
56894;BME280;43392;50.078;13.704;2023-04-10T00:24:29;97777.97;;;7.70;77.86
56894;BME280;43392;50.078;13.704;2023-04-10T00:26:56;97776.59;;;7.67;77.70
56894;BME280;43392;50.078;13.704;2023-04-10T00:29:23;97766.69;;;7.68;77.72
56894;BME280;43392;50.078;13.704;2023-04-10T00:31:51;97762.41;;;7.67;77.60
56894;BME280;43392;50.078;13.704;2023-04-10T00:34:18;97770.44;;;7.67;77.88
56894;BME280;43392;50.078;13.704;2023-04-10T00:36:45;97766.94;;;7.66;77.55
56894;BME280;43392;50.078;13.704;2023-04-10T00:39:12;97763.44;;;7.66;77.74
56894;BME280;43392;50.078;13.704;2023-04-10T00:41:39;97765.91;;;7.67;77.59
56894;BME280;43392;50.078;13.704;2023-04-10T00:44:05;97766.69;;;7.68;77.71
56894;BME280;43392;50.078;13.704;2023-04-10T00:46:32;97760.56;;;7.67;77.69
56894;BME280;43392;50.078;13.704;2023-04-10T00:49:00;97760.78;;;7.66;77.73
56894;BME280;43392;50.078;13.704;2023-04-10T00:51:27;97756.72;;;7.63;78.24
56894;BME280;43392;50.078;13.704;2023-04-10T00:53:54;97762.56;;;7.60;78.38
56894;BME280;43392;50.078;13.704;2023-04-10T00:56:22;97763.50;;;7.54;78.39
56894;BME280;43392;50.078;13.704;2023-04-10T00:58:49;97754.81;;;7.47;78.62
56894;BME280;43392;50.078;13.704;2023-04-10T01:01:16;97763.16;;;7.51;78.43
56894;BME280;43392;50.078;13.704;2023-04-10T01:03:43;97769.06;;;7.53;78.66
56894;BME280;43392;50.078;13.704;2023-04-10T01:06:17;97771.50;;;7.54;78.39
56894;BME280;43392;50.078;13.704;2023-04-10T01:08:51;97762.91;;;7.52;78.42
56894;BME280;43392;50.078;13.704;2023-04-10T01:11:26;97774.41;;;7.53;78.18
56894;BME280;43392;50.078;13.704;2023-04-10T01:14:04;97759.69;;;7.50;78.11
56894;BME280;43392;50.078;13.704;2023-04-10T01:16:35;97765.03;;;7.50;78.78
56894;BME280;43392;50.078;13.704;2023-04-10T01:19:13;97763.38;;;7.49;79.22
56894;BME280;43392;50.078;13.704;2023-04-10T01:21:48;97762.56;;;7.49;79.37
56894;BME280;43392;50.078;13.704;2023-04-10T01:24:22;97758.06;;;7.49;79.52
56894;BME280;43392;50.078;13.704;2023-04-10T01:27:06;97751.09;;;7.48;79.79
56894;BME280;43392;50.078;13.704;2023-04-10T01:29:40;97763.06;;;7.46;80.11
56894;BME280;43392;50.078;13.704;2023-04-10T01:32:13;97764.34;;;7.43;80.33
56894;BME280;43392;50.078;13.704;2023-04-10T01:34:44;97759.38;;;7.35;80.61
56894;BME280;43392;50.078;13.704;2023-04-10T01:37:13;97762.03;;;7.35;80.74
56894;BME280;43392;50.078;13.704;2023-04-10T01:39:42;97769.69;;;7.31;81.10
56894;BME280;43392;50.078;13.704;2023-04-10T01:42:10;97763.19;;;7.27;81.37
56894;BME280;43392;50.078;13.704;2023-04-10T01:44:41;97756.47;;;7.25;81.54
56894;BME280;43392;50.078;13.704;2023-04-10T01:47:09;97757.06;;;7.27;81.53
56894;BME280;43392;50.078;13.704;2023-04-10T01:49:39;97761.25;;;7.23;81.85
56894;BME280;43392;50.078;13.704;2023-04-10T01:52:09;97758.22;;;7.19;81.91
56894;BME280;43392;50.078;13.704;2023-04-10T01:54:37;97759.53;;;7.17;82.18
56894;BME280;43392;50.078;13.704;2023-04-10T01:57:04;97757.88;;;7.16;82.23
56894;BME280;43392;50.078;13.704;2023-04-10T01:59:31;97748.50;;;7.13;82.18
56894;BME280;43392;50.078;13.704;2023-04-10T02:02:00;97748.50;;;7.13;82.45
56894;BME280;43392;50.078;13.704;2023-04-10T02:04:27;97751.63;;;7.10;82.38
56894;BME280;43392;50.078;13.704;2023-04-10T02:07:01;97761.47;;;7.10;82.29
56894;BME280;43392;50.078;13.704;2023-04-10T02:09:35;97753.97;;;7.07;82.34
56894;BME280;43392;50.078;13.704;2023-04-10T02:12:04;97754.44;;;7.04;82.39
56894;BME280;43392;50.078;13.704;2023-04-10T02:14:35;97754.56;;;6.97;82.51
56894;BME280;43392;50.078;13.704;2023-04-10T02:17:05;97761.28;;;7.00;82.69
56894;BME280;43392;50.078;13.704;2023-04-10T02:19:34;97759.06;;;6.97;82.32
56894;BME280;43392;50.078;13.704;2023-04-10T02:22:03;97753.72;;;6.97;82.72
56894;BME280;43392;50.078;13.704;2023-04-10T02:24:31;97753.94;;;6.95;82.92
56894;BME280;43392;50.078;13.704;2023-04-10T02:26:57;97744.09;;;6.96;82.61
56894;BME280;43392;50.078;13.704;2023-04-10T02:29:25;97739.59;;;6.96;82.69
56894;BME280;43392;50.078;13.704;2023-04-10T02:31:52;97743.88;;;6.97;82.42
56894;BME280;43392;50.078;13.704;2023-04-10T02:34:20;97741.44;;;6.96;82.46
56894;BME280;43392;50.078;13.704;2023-04-10T02:36:46;97746.56;;;6.97;82.16
56894;BME280;43392;50.078;13.704;2023-04-10T02:39:13;97742.50;;;6.95;82.42
56894;BME280;43392;50.078;13.704;2023-04-10T02:41:40;97742.63;;;7.00;82.49
56894;BME280;43392;50.078;13.704;2023-04-10T02:44:06;97750.38;;;7.01;82.38
56894;BME280;43392;50.078;13.704;2023-04-10T02:46:33;97749.34;;;7.02;82.11
56894;BME280;43392;50.078;13.704;2023-04-10T02:49:00;97750.94;;;7.03;81.64
56894;BME280;43392;50.078;13.704;2023-04-10T02:51:28;97750.69;;;7.05;81.63
56894;BME280;43392;50.078;13.704;2023-04-10T02:53:55;97741.34;;;7.02;81.44
56894;BME280;43392;50.078;13.704;2023-04-10T02:56:21;97750.38;;;7.01;81.04
56894;BME280;43392;50.078;13.704;2023-04-10T02:58:50;97747.94;;;7.00;81.11
56894;BME280;43392;50.078;13.704;2023-04-10T03:01:16;97749.78;;;6.99;80.81
56894;BME280;43392;50.078;13.704;2023-04-10T03:03:43;97750.81;;;6.98;80.48
56894;BME280;43392;50.078;13.704;2023-04-10T03:06:09;97757.34;;;7.02;80.50
56894;BME280;43392;50.078;13.704;2023-04-10T03:08:37;97756.72;;;7.00;80.24
56894;BME280;43392;50.078;13.704;2023-04-10T03:11:05;97750.72;;;6.93;80.64
56894;BME280;43392;50.078;13.704;2023-04-10T03:13:32;97757.56;;;6.89;81.05
56894;BME280;43392;50.078;13.704;2023-04-10T03:15:59;97762.44;;;6.92;81.17
56894;BME280;43392;50.078;13.704;2023-04-10T03:18:25;97765.31;;;6.91;81.13
56894;BME280;43392;50.078;13.704;2023-04-10T03:20:52;97769.50;;;6.87;81.58
56894;BME280;43392;50.078;13.704;2023-04-10T03:23:19;97765.19;;;6.86;81.90
56894;BME280;43392;50.078;13.704;2023-04-10T03:25:50;97760.94;;;6.85;81.93
56894;BME280;43392;50.078;13.704;2023-04-10T03:28:18;97762.53;;;6.86;82.02
56894;BME280;43392;50.078;13.704;2023-04-10T03:30:44;97760.94;;;6.85;82.22
56894;BME280;43392;50.078;13.704;2023-04-10T03:33:11;97760.94;;;6.85;82.05
56894;BME280;43392;50.078;13.704;2023-04-10T03:35:37;97759.06;;;6.85;82.24
56894;BME280;43392;50.078;13.704;2023-04-10T03:38:04;97755.03;;;6.83;82.36
56894;BME280;43392;50.078;13.704;2023-04-10T03:40:31;97751.53;;;6.82;82.29
56894;BME280;43392;50.078;13.704;2023-04-10T03:42:59;97747.94;;;6.77;82.27
56894;BME280;43392;50.078;13.704;2023-04-10T03:45:26;97757.09;;;6.81;82.49
56894;BME280;43392;50.078;13.704;2023-04-10T03:47:53;97755.47;;;6.80;82.31
56894;BME280;43392;50.078;13.704;2023-04-10T03:50:19;97750.72;;;6.82;82.15
56894;BME280;43392;50.078;13.704;2023-04-10T03:52:46;97749.69;;;6.83;82.15
56894;BME280;43392;50.078;13.704;2023-04-10T03:55:14;97739.59;;;6.85;82.20
56894;BME280;43392;50.078;13.704;2023-04-10T03:57:43;97750.84;;;6.87;82.39
56894;BME280;43392;50.078;13.704;2023-04-10T04:00:12;97759.66;;;6.87;82.38
56894;BME280;43392;50.078;13.704;2023-04-10T04:02:39;97762.06;;;6.89;82.56
56894;BME280;43392;50.078;13.704;2023-04-10T04:05:06;97762.06;;;6.89;82.29
56894;BME280;43392;50.078;13.704;2023-04-10T04:07:33;97762.06;;;6.89;82.25
56894;BME280;43392;50.078;13.704;2023-04-10T04:10:00;97768.47;;;6.88;82.29
56894;BME280;43392;50.078;13.704;2023-04-10T04:12:26;97751.19;;;6.79;82.52
56894;BME280;43392;50.078;13.704;2023-04-10T04:14:53;97770.53;;;6.74;82.58
56894;BME280;43392;50.078;13.704;2023-04-10T04:17:21;97764.88;;;6.71;82.67
56894;BME280;43392;50.078;13.704;2023-04-10T04:19:47;97767.75;;;6.69;83.19
56894;BME280;43392;50.078;13.704;2023-04-10T04:22:14;97771.22;;;6.69;83.19
56894;BME280;43392;50.078;13.704;2023-04-10T04:24:41;97767.75;;;6.69;82.82
56894;BME280;43392;50.078;13.704;2023-04-10T04:27:07;97776.44;;;6.64;83.06
56894;BME280;43392;50.078;13.704;2023-04-10T04:29:34;97772.63;;;6.60;83.07
56894;BME280;43392;50.078;13.704;2023-04-10T04:32:00;97772.63;;;6.60;83.19
56894;BME280;43392;50.078;13.704;2023-04-10T04:34:28;97774.09;;;6.56;83.37
56894;BME280;43392;50.078;13.704;2023-04-10T04:36:55;97775.41;;;6.54;83.46
56894;BME280;43392;50.078;13.704;2023-04-10T04:39:21;97785.25;;;6.53;83.69
56894;BME280;43392;50.078;13.704;2023-04-10T04:41:48;97780.22;;;6.45;84.03
56894;BME280;43392;50.078;13.704;2023-04-10T04:44:15;97779.66;;;6.43;84.20
56894;BME280;43392;50.078;13.704;2023-04-10T04:46:41;97790.31;;;6.43;84.57
56894;BME280;43392;50.078;13.704;2023-04-10T04:49:08;97799.19;;;6.37;84.77
56894;BME280;43392;50.078;13.704;2023-04-10T04:51:36;97807.19;;;6.37;85.25
56894;BME280;43392;50.078;13.704;2023-04-10T04:54:02;97800.03;;;6.38;85.40
56894;BME280;43392;50.078;13.704;2023-04-10T04:56:29;97803.22;;;6.28;85.82
56894;BME280;43392;50.078;13.704;2023-04-10T04:58:56;97802.63;;;6.15;86.10
56894;BME280;43392;50.078;13.704;2023-04-10T05:01:22;97804.91;;;6.11;86.68
56894;BME280;43392;50.078;13.704;2023-04-10T05:03:49;97786.97;;;6.07;86.50
56894;BME280;43392;50.078;13.704;2023-04-10T05:06:15;97799.97;;;6.15;86.60
56894;BME280;43392;50.078;13.704;2023-04-10T05:08:44;97799.16;;;6.14;87.06
56894;BME280;43392;50.078;13.704;2023-04-10T05:11:10;97814.81;;;6.22;86.89
56894;BME280;43392;50.078;13.704;2023-04-10T05:13:37;97812.63;;;6.31;86.39
56894;BME280;43392;50.078;13.704;2023-04-10T05:16:04;97811.25;;;6.40;86.33
56894;BME280;43392;50.078;13.704;2023-04-10T05:18:31;97817.91;;;6.49;86.06
56894;BME280;43392;50.078;13.704;2023-04-10T05:20:57;97807.72;;;6.57;85.73
56894;BME280;43392;50.078;13.704;2023-04-10T05:23:24;97815.38;;;6.65;85.65
56894;BME280;43392;50.078;13.704;2023-04-10T05:25:52;97813.41;;;6.73;85.77
56894;BME280;43392;50.078;13.704;2023-04-10T05:28:19;97815.38;;;6.77;85.13
56894;BME280;43392;50.078;13.704;2023-04-10T05:30:46;97814.69;;;6.82;85.08
56894;BME280;43392;50.078;13.704;2023-04-10T05:33:13;97825.94;;;6.84;84.80
56894;BME280;43392;50.078;13.704;2023-04-10T05:35:39;97820.97;;;6.87;84.86
56894;BME280;43392;50.078;13.704;2023-04-10T05:38:06;97811.47;;;6.91;84.73
56894;BME280;43392;50.078;13.704;2023-04-10T05:40:33;97814.50;;;6.95;84.65
56894;BME280;43392;50.078;13.704;2023-04-10T05:43:00;97816.66;;;6.98;84.73
56894;BME280;43392;50.078;13.704;2023-04-10T05:45:27;97818.41;;;7.04;84.79
56894;BME280;43392;50.078;13.704;2023-04-10T05:47:54;97818.88;;;7.12;84.66
56894;BME280;43392;50.078;13.704;2023-04-10T05:50:21;97823.06;;;7.20;84.35
56894;BME280;43392;50.078;13.704;2023-04-10T05:52:47;97821.31;;;7.25;84.12
56894;BME280;43392;50.078;13.704;2023-04-10T05:55:14;97822.13;;;7.26;83.75
56894;BME280;43392;50.078;13.704;2023-04-10T05:57:40;97817.38;;;7.28;83.35
56894;BME280;43392;50.078;13.704;2023-04-10T06:00:10;97814.25;;;7.31;83.05
56894;BME280;43392;50.078;13.704;2023-04-10T06:02:37;97818.41;;;7.39;82.99
56894;BME280;43392;50.078;13.704;2023-04-10T06:05:04;97813.53;;;7.47;82.95
56894;BME280;43392;50.078;13.704;2023-04-10T06:07:30;97813.75;;;7.57;83.13
56894;BME280;43392;50.078;13.704;2023-04-10T06:09:57;97807.78;;;7.67;82.79
56894;BME280;43392;50.078;13.704;2023-04-10T06:12:24;97804.97;;;7.73;82.40
56894;BME280;43392;50.078;13.704;2023-04-10T06:14:50;97806.81;;;7.84;82.48
56894;BME280;43392;50.078;13.704;2023-04-10T06:17:18;97803.53;;;7.94;82.46
56894;BME280;43392;50.078;13.704;2023-04-10T06:19:45;97806.16;;;8.06;82.05
56894;BME280;43392;50.078;13.704;2023-04-10T06:22:12;97801.59;;;8.18;81.65
56894;BME280;43392;50.078;13.704;2023-04-10T06:24:38;97812.59;;;8.33;81.06
56894;BME280;43392;50.078;13.704;2023-04-10T06:27:06;97812.25;;;8.46;80.82
56894;BME280;43392;50.078;13.704;2023-04-10T06:29:32;97816.50;;;8.58;80.66
56894;BME280;43392;50.078;13.704;2023-04-10T06:31:59;97811.59;;;8.67;80.10
56894;BME280;43392;50.078;13.704;2023-04-10T06:34:27;97818.63;;;8.73;78.38
56894;BME280;43392;50.078;13.704;2023-04-10T06:36:54;97811.97;;;8.76;77.85
56894;BME280;43392;50.078;13.704;2023-04-10T06:39:20;97804.03;;;8.81;79.03
56894;BME280;43392;50.078;13.704;2023-04-10T06:41:47;97811.25;;;8.80;79.64
56894;BME280;43392;50.078;13.704;2023-04-10T06:44:13;97812.31;;;8.79;79.12
56894;BME280;43392;50.078;13.704;2023-04-10T06:46:40;97810.22;;;8.81;78.79
56894;BME280;43392;50.078;13.704;2023-04-10T06:49:07;97811.66;;;8.89;78.36
56894;BME280;43392;50.078;13.704;2023-04-10T06:51:35;97809.63;;;8.96;78.86
56894;BME280;43392;50.078;13.704;2023-04-10T06:54:01;97803.56;;;9.00;79.21
56894;BME280;43392;50.078;13.704;2023-04-10T06:56:28;97812.13;;;9.02;79.11
56894;BME280;43392;50.078;13.704;2023-04-10T06:58:54;97814.34;;;9.05;78.97
56894;BME280;43392;50.078;13.704;2023-04-10T07:01:21;97815.44;;;9.09;78.89
56894;BME280;43392;50.078;13.704;2023-04-10T07:03:48;97812.22;;;9.07;79.02
56894;BME280;43392;50.078;13.704;2023-04-10T07:06:15;97819.75;;;9.10;78.74
56894;BME280;43392;50.078;13.704;2023-04-10T07:08:43;97813.66;;;9.15;78.80
56894;BME280;43392;50.078;13.704;2023-04-10T07:11:09;97814.53;;;9.20;78.86
56894;BME280;43392;50.078;13.704;2023-04-10T07:13:36;97817.28;;;9.25;78.46
56894;BME280;43392;50.078;13.704;2023-04-10T07:16:05;97817.88;;;9.27;77.67
56894;BME280;43392;50.078;13.704;2023-04-10T07:18:32;97819.25;;;9.30;77.99
56894;BME280;43392;50.078;13.704;2023-04-10T07:20:59;97823.28;;;9.32;78.11
56894;BME280;43392;50.078;13.704;2023-04-10T07:23:26;97812.63;;;9.38;78.09
56894;BME280;43392;50.078;13.704;2023-04-10T07:25:54;97815.09;;;9.39;77.55
56894;BME280;43392;50.078;13.704;2023-04-10T07:28:22;97808.66;;;9.40;77.26
56894;BME280;43392;50.078;13.704;2023-04-10T07:30:49;97814.84;;;9.41;76.10
56894;BME280;43392;50.078;13.704;2023-04-10T07:33:16;97813.28;;;9.45;75.35
56894;BME280;43392;50.078;13.704;2023-04-10T07:35:42;97809.63;;;9.51;74.61
56894;BME280;43392;50.078;13.704;2023-04-10T07:38:10;97811.63;;;9.60;73.89
56894;BME280;43392;50.078;13.704;2023-04-10T07:40:37;97811.56;;;9.77;73.41
56894;BME280;43392;50.078;13.704;2023-04-10T07:43:05;97804.47;;;9.87;72.07
56894;BME280;43392;50.078;13.704;2023-04-10T07:45:32;97800.47;;;9.90;72.56
56894;BME280;43392;50.078;13.704;2023-04-10T07:47:58;97805.97;;;10.00;72.62
56894;BME280;43392;50.078;13.704;2023-04-10T07:50:26;97799.63;;;10.11;71.80
56894;BME280;43392;50.078;13.704;2023-04-10T07:52:53;97802.19;;;10.23;71.00
56894;BME280;43392;50.078;13.704;2023-04-10T07:55:19;97794.00;;;10.34;70.95
56894;BME280;43392;50.078;13.704;2023-04-10T07:57:46;97799.53;;;10.49;70.76
56894;BME280;43392;50.078;13.704;2023-04-10T08:00:15;97793.69;;;10.57;69.47
56894;BME280;43392;50.078;13.704;2023-04-10T08:02:42;97794.84;;;10.66;69.30
56894;BME280;43392;50.078;13.704;2023-04-10T08:05:08;97798.63;;;10.71;67.90
56894;BME280;43392;50.078;13.704;2023-04-10T08:07:35;97787.75;;;10.82;67.73
56894;BME280;43392;50.078;13.704;2023-04-10T08:10:02;97794.78;;;10.93;67.62
56894;BME280;43392;50.078;13.704;2023-04-10T08:12:32;97790.84;;;11.01;66.35
56894;BME280;43392;50.078;13.704;2023-04-10T08:14:58;97793.81;;;11.04;66.35
56894;BME280;43392;50.078;13.704;2023-04-10T08:17:26;97788.66;;;10.98;64.53
56894;BME280;43392;50.078;13.704;2023-04-10T08:19:53;97796.06;;;10.86;65.25
56894;BME280;43392;50.078;13.704;2023-04-10T08:22:19;97790.94;;;10.79;64.95
56894;BME280;43392;50.078;13.704;2023-04-10T08:24:46;97790.25;;;10.62;63.87
56894;BME280;43392;50.078;13.704;2023-04-10T08:27:12;97791.28;;;10.56;64.31
56894;BME280;43392;50.078;13.704;2023-04-10T08:29:40;97787.63;;;10.67;65.31
56894;BME280;43392;50.078;13.704;2023-04-10T08:32:07;97789.75;;;10.65;65.21
56894;BME280;43392;50.078;13.704;2023-04-10T08:34:35;97793.25;;;10.65;65.02
56894;BME280;43392;50.078;13.704;2023-04-10T08:37:04;97786.28;;;10.70;65.66
56894;BME280;43392;50.078;13.704;2023-04-10T08:39:33;97790.63;;;10.76;65.18
56894;BME280;43392;50.078;13.704;2023-04-10T08:42:00;97786.63;;;10.78;64.27
56894;BME280;43392;50.078;13.704;2023-04-10T08:44:26;97785.09;;;10.87;64.57
56894;BME280;43392;50.078;13.704;2023-04-10T08:46:57;97798.56;;;10.97;64.56
56894;BME280;43392;50.078;13.704;2023-04-10T08:49:29;97801.88;;;11.04;63.77
56894;BME280;43392;50.078;13.704;2023-04-10T08:52:01;97798.63;;;11.02;63.14
56894;BME280;43392;50.078;13.704;2023-04-10T08:54:32;97790.38;;;11.09;62.28
56894;BME280;43392;50.078;13.704;2023-04-10T08:56:59;97789.03;;;11.11;62.71
56894;BME280;43392;50.078;13.704;2023-04-10T08:59:27;97795.19;;;11.12;62.80
56894;BME280;43392;50.078;13.704;2023-04-10T09:01:53;97787.72;;;11.14;62.83
56894;BME280;43392;50.078;13.704;2023-04-10T09:04:21;97789.63;;;11.18;62.93
56894;BME280;43392;50.078;13.704;2023-04-10T09:06:49;97791.00;;;11.26;63.44
56894;BME280;43392;50.078;13.704;2023-04-10T09:09:16;97786.06;;;11.55;61.79
56894;BME280;43392;50.078;13.704;2023-04-10T09:11:56;97784.03;;;11.72;60.09
56894;BME280;43392;50.078;13.704;2023-04-10T09:14:25;97771.97;;;11.84;59.95
56894;BME280;43392;50.078;13.704;2023-04-10T09:16:53;97768.97;;;11.71;59.39
56894;BME280;43392;50.078;13.704;2023-04-10T09:19:28;97775.53;;;11.48;59.93
56894;BME280;43392;50.078;13.704;2023-04-10T09:21:55;97784.97;;;11.56;59.70
56894;BME280;43392;50.078;13.704;2023-04-10T09:24:24;97779.38;;;11.57;60.35
56894;BME280;43392;50.078;13.704;2023-04-10T09:26:51;97783.63;;;11.53;58.95
56894;BME280;43392;50.078;13.704;2023-04-10T09:29:18;97772.63;;;11.55;58.89
56894;BME280;43392;50.078;13.704;2023-04-10T09:31:45;97784.13;;;11.45;58.96
56894;BME280;43392;50.078;13.704;2023-04-10T09:34:13;97771.25;;;11.47;58.82
56894;BME280;43392;50.078;13.704;2023-04-10T09:36:41;97771.81;;;11.54;58.60
56894;BME280;43392;50.078;13.704;2023-04-10T09:39:08;97775.91;;;11.67;58.24
56894;BME280;43392;50.078;13.704;2023-04-10T09:41:48;97763.91;;;11.74;58.06
56894;BME280;43392;50.078;13.704;2023-04-10T09:44:18;97753.88;;;11.65;59.32
56894;BME280;43392;50.078;13.704;2023-04-10T09:46:53;97762.72;;;11.60;58.66
56894;BME280;43392;50.078;13.704;2023-04-10T09:49:19;97758.91;;;11.51;58.44
56894;BME280;43392;50.078;13.704;2023-04-10T09:51:46;97751.38;;;11.43;58.83
56894;BME280;43392;50.078;13.704;2023-04-10T09:54:14;97748.69;;;11.43;59.34
56894;BME280;43392;50.078;13.704;2023-04-10T09:56:44;97743.19;;;11.75;65.86
56894;BME280;43392;50.078;13.704;2023-04-10T09:59:12;97740.28;;;11.96;59.45
56894;BME280;43392;50.078;13.704;2023-04-10T10:01:40;97742.22;;;12.11;57.93
56894;BME280;43392;50.078;13.704;2023-04-10T10:04:08;97736.31;;;12.19;57.09
56894;BME280;43392;50.078;13.704;2023-04-10T10:06:37;97731.78;;;12.25;57.13
56894;BME280;43392;50.078;13.704;2023-04-10T10:09:04;97725.03;;;12.22;57.09
56894;BME280;43392;50.078;13.704;2023-04-10T10:11:32;97719.66;;;12.27;56.81
56894;BME280;43392;50.078;13.704;2023-04-10T10:14:02;97718.34;;;12.35;56.53
56894;BME280;43392;50.078;13.704;2023-04-10T10:16:33;97707.31;;;12.41;56.44
56894;BME280;43392;50.078;13.704;2023-04-10T10:19:05;97704.09;;;12.49;56.81
56894;BME280;43392;50.078;13.704;2023-04-10T10:21:32;97706.75;;;12.64;57.68
56894;BME280;43392;50.078;13.704;2023-04-10T10:24:00;97706.22;;;12.83;57.73
56894;BME280;43392;50.078;13.704;2023-04-10T10:26:29;97704.56;;;12.97;56.92
56894;BME280;43392;50.078;13.704;2023-04-10T10:29:00;97698.91;;;13.08;56.49
56894;BME280;43392;50.078;13.704;2023-04-10T10:31:29;97685.72;;;13.17;55.72
56894;BME280;43392;50.078;13.704;2023-04-10T10:34:00;97683.75;;;13.32;56.16
56894;BME280;43392;50.078;13.704;2023-04-10T10:36:29;97686.72;;;13.36;56.30
56894;BME280;43392;50.078;13.704;2023-04-10T10:39:04;97688.09;;;13.23;55.50
56894;BME280;43392;50.078;13.704;2023-04-10T10:41:43;97680.84;;;13.19;55.14
56894;BME280;43392;50.078;13.704;2023-04-10T10:44:15;97678.38;;;13.32;55.32
56894;BME280;43392;50.078;13.704;2023-04-10T10:46:49;97682.13;;;13.42;54.69
56894;BME280;43392;50.078;13.704;2023-04-10T10:49:17;97674.28;;;13.45;53.66
56894;BME280;43392;50.078;13.704;2023-04-10T10:51:45;97672.09;;;13.52;52.72
56894;BME280;43392;50.078;13.704;2023-04-10T10:54:28;97672.88;;;13.58;52.71
56894;BME280;43392;50.078;13.704;2023-04-10T10:56:55;97663.75;;;13.54;52.27
56894;BME280;43392;50.078;13.704;2023-04-10T10:59:54;97659.97;;;13.55;52.48
56894;BME280;43392;50.078;13.704;2023-04-10T11:02:24;97654.53;;;13.65;52.92
56894;BME280;43392;50.078;13.704;2023-04-10T11:04:52;97662.56;;;13.75;53.03
56894;BME280;43392;50.078;13.704;2023-04-10T11:07:19;97654.66;;;13.88;51.61
56894;BME280;43392;50.078;13.704;2023-04-10T11:09:48;97649.00;;;13.90;51.32
56894;BME280;43392;50.078;13.704;2023-04-10T11:12:15;97645.19;;;13.91;51.94
56894;BME280;43392;50.078;13.704;2023-04-10T11:14:42;97646.50;;;13.98;51.07
56894;BME280;43392;50.078;13.704;2023-04-10T11:17:10;97649.72;;;14.01;51.47
56894;BME280;43392;50.078;13.704;2023-04-10T11:19:58;97643.03;;;13.93;51.66
56894;BME280;43392;50.078;13.704;2023-04-10T11:22:25;97641.53;;;13.72;51.02
56894;BME280;43392;50.078;13.704;2023-04-10T11:24:57;97637.34;;;13.56;51.17
56894;BME280;43392;50.078;13.704;2023-04-10T11:27:47;97638.56;;;13.73;50.79
56894;BME280;43392;50.078;13.704;2023-04-10T11:30:31;97640.94;;;13.85;50.20
56894;BME280;43392;50.078;13.704;2023-04-10T11:32:57;97626.28;;;13.96;49.78
56894;BME280;43392;50.078;13.704;2023-04-10T11:35:26;97630.31;;;13.98;49.62
56894;BME280;43392;50.078;13.704;2023-04-10T11:38:10;97634.16;;;13.92;50.16
56894;BME280;43392;50.078;13.704;2023-04-10T11:40:53;97624.00;;;13.74;50.43
56894;BME280;43392;50.078;13.704;2023-04-10T11:43:19;97615.94;;;13.74;49.90
56894;BME280;43392;50.078;13.704;2023-04-10T11:45:46;97610.75;;;13.83;50.51
56894;BME280;43392;50.078;13.704;2023-04-10T11:48:13;97606.84;;;14.04;50.71
56894;BME280;43392;50.078;13.704;2023-04-10T11:50:42;97601.59;;;14.18;48.91
56894;BME280;43392;50.078;13.704;2023-04-10T11:53:17;97603.69;;;14.26;48.35
56894;BME280;43392;50.078;13.704;2023-04-10T11:55:44;97594.22;;;14.28;48.05
56894;BME280;43392;50.078;13.704;2023-04-10T11:58:24;97591.22;;;14.30;49.20
56894;BME280;43392;50.078;13.704;2023-04-10T12:00:55;97586.13;;;14.33;49.25
56894;BME280;43392;50.078;13.704;2023-04-10T12:03:33;97579.91;;;14.28;48.12
56894;BME280;43392;50.078;13.704;2023-04-10T12:06:02;97574.94;;;14.11;48.26
56894;BME280;43392;50.078;13.704;2023-04-10T12:08:30;97574.28;;;14.24;48.72
56894;BME280;43392;50.078;13.704;2023-04-10T12:10:57;97565.97;;;14.21;48.58
56894;BME280;43392;50.078;13.704;2023-04-10T12:13:24;97556.44;;;14.33;48.51
56894;BME280;43392;50.078;13.704;2023-04-10T12:15:51;97548.75;;;14.45;49.73
56894;BME280;43392;50.078;13.704;2023-04-10T12:18:18;97551.56;;;14.59;47.14
56894;BME280;43392;50.078;13.704;2023-04-10T12:20:45;97557.72;;;14.65;47.22
56894;BME280;43392;50.078;13.704;2023-04-10T12:23:13;97554.16;;;14.69;46.91
56894;BME280;43392;50.078;13.704;2023-04-10T12:25:40;97556.97;;;14.59;47.56
56894;BME280;43392;50.078;13.704;2023-04-10T12:28:07;97545.38;;;14.58;46.32
56894;BME280;43392;50.078;13.704;2023-04-10T12:30:33;97549.56;;;14.46;47.07
56894;BME280;43392;50.078;13.704;2023-04-10T12:33:00;97538.13;;;14.25;47.12
56894;BME280;43392;50.078;13.704;2023-04-10T12:35:39;97537.03;;;14.31;47.37
56894;BME280;43392;50.078;13.704;2023-04-10T12:38:06;97529.38;;;14.43;47.49
56894;BME280;43392;50.078;13.704;2023-04-10T12:40:34;97528.66;;;14.56;47.16
56894;BME280;43392;50.078;13.704;2023-04-10T12:43:02;97531.19;;;14.48;47.07
56894;BME280;43392;50.078;13.704;2023-04-10T12:45:41;97535.91;;;14.61;45.15
56894;BME280;43392;50.078;13.704;2023-04-10T12:48:08;97533.38;;;14.70;45.25
56894;BME280;43392;50.078;13.704;2023-04-10T12:50:45;97524.41;;;14.74;45.17
56894;BME280;43392;50.078;13.704;2023-04-10T12:53:12;97510.06;;;14.79;43.61
56894;BME280;43392;50.078;13.704;2023-04-10T12:55:40;97511.06;;;14.83;44.47
56894;BME280;43392;50.078;13.704;2023-04-10T12:58:17;97516.34;;;14.93;44.97
56894;BME280;43392;50.078;13.704;2023-04-10T13:00:44;97517.84;;;15.04;43.93